Time;durP1;ratioP1;P1;durP2;ratioP2;P2;SDS_P1;SDS_P2;PMS_P1;PMS_P2;Temp;Humidity;BMP_temperature;BMP_pressure;BME280_temperature;BME280_humidity;BME280_pressure;Samples;Min_cycle;Max_cycle;Signal;HPM_P1;HPM_P2
2022/07/01 00:01:29;;;;;;;13.00;6.97;;;16.70;99.90;;;;;;5056079;28;20654;-73
2022/07/01 00:03:56;;;;;;;12.87;8.07;;;16.80;99.90;;;;;;5062467;28;20602;-73
2022/07/01 00:06:24;;;;;;;10.17;7.63;;;16.90;99.90;;;;;;5054716;28;20826;-73
2022/07/01 00:08:52;;;;;;;11.73;6.50;;;17.00;99.90;;;;;;5058373;28;20563;-72
2022/07/01 00:11:18;;;;;;;13.13;7.13;;;17.10;99.90;;;;;;5058994;28;20491;-74
2022/07/01 00:13:45;;;;;;;11.10;7.13;;;17.10;99.90;;;;;;5056224;28;20458;-74
2022/07/01 00:16:12;;;;;;;11.93;6.63;;;17.10;99.90;;;;;;5059072;28;20514;-73
2022/07/01 00:18:39;;;;;;;9.03;5.57;;;17.10;99.90;;;;;;5060187;28;20443;-72
2022/07/01 00:21:06;;;;;;;18.83;7.27;;;17.00;99.90;;;;;;5059657;28;20974;-73
2022/07/01 00:23:33;;;;;;;10.73;6.10;;;16.80;99.90;;;;;;5049083;28;20475;-73
2022/07/01 00:26:01;;;;;;;14.57;6.57;;;16.70;99.90;;;;;;5053689;28;20622;-74
2022/07/01 00:28:28;;;;;;;11.77;7.37;;;16.70;99.90;;;;;;5043337;28;20462;-74
2022/07/01 00:30:55;;;;;;;9.73;4.50;;;16.70;99.90;;;;;;5053457;28;20451;-73
2022/07/01 00:33:22;;;;;;;6.70;4.70;;;16.60;99.90;;;;;;5062789;28;20460;-74
2022/07/01 00:35:49;;;;;;;8.27;5.57;;;16.60;99.90;;;;;;5058601;28;20853;-73
2022/07/01 00:38:19;;;;;;;9.13;5.67;;;16.50;99.90;;;;;;5054996;28;20524;-74
2022/07/01 00:40:51;;;;;;;15.97;7.43;;;16.40;99.90;;;;;;5050024;28;20547;-73
2022/07/01 00:43:22;;;;;;;7.73;4.80;;;16.40;99.90;;;;;;5059152;28;20855;-73
2022/07/01 00:45:50;;;;;;;7.33;6.30;;;16.50;99.90;;;;;;5055316;28;21612;-73
2022/07/01 00:48:17;;;;;;;9.93;6.70;;;16.60;99.90;;;;;;5053994;28;20554;-73
2022/07/01 00:50:45;;;;;;;11.93;6.03;;;16.60;99.90;;;;;;5058811;28;20522;-74
2022/07/01 00:53:12;;;;;;;16.10;6.67;;;16.50;99.90;;;;;;5052970;28;20544;-73
2022/07/01 00:55:39;;;;;;;9.00;6.07;;;16.70;99.90;;;;;;5054351;28;20470;-73
2022/07/01 00:58:05;;;;;;;12.20;6.70;;;16.90;99.90;;;;;;5049318;28;20497;-74
2022/07/01 01:00:34;;;;;;;11.87;6.43;;;17.00;99.90;;;;;;5046889;28;20987;-73
2022/07/01 01:03:01;;;;;;;11.10;6.70;;;17.10;99.90;;;;;;5051869;28;20566;-72
2022/07/01 01:05:28;;;;;;;10.03;6.27;;;17.10;99.90;;;;;;5058993;28;20436;-73
2022/07/01 01:07:55;;;;;;;12.03;7.20;;;17.20;99.90;;;;;;5049491;28;20657;-74
2022/07/01 01:10:23;;;;;;;10.50;6.97;;;17.20;99.90;;;;;;5051825;28;20430;-74
2022/07/01 01:12:50;;;;;;;8.63;5.90;;;17.20;99.90;;;;;;5052685;28;20979;-74
2022/07/01 01:15:21;;;;;;;10.97;7.13;;;17.20;99.90;;;;;;5053916;28;20435;-74
2022/07/01 01:17:49;;;;;;;8.77;5.87;;;17.10;99.90;;;;;;5051024;28;20481;-74
2022/07/01 01:20:17;;;;;;;11.10;7.00;;;17.20;99.90;;;;;;5054977;28;20892;-74
2022/07/01 01:22:48;;;;;;;9.90;7.30;;;17.30;99.90;;;;;;5053781;28;20460;-73
2022/07/01 01:25:15;;;;;;;11.17;8.47;;;17.10;99.90;;;;;;5054559;28;20828;-73
2022/07/01 01:27:42;;;;;;;9.43;5.97;;;17.00;99.90;;;;;;5053853;28;20562;-74
2022/07/01 01:30:13;;;;;;;10.43;6.93;;;17.00;99.90;;;;;;5051619;28;20459;-75
2022/07/01 01:32:40;;;;;;;11.50;7.10;;;17.00;99.90;;;;;;5052371;28;20487;-75
2022/07/01 01:35:14;;;;;;;9.90;6.50;;;17.00;99.90;;;;;;5047794;28;20709;-73
2022/07/01 01:37:41;;;;;;;12.33;7.70;;;16.80;99.90;;;;;;5045912;28;20486;-73
2022/07/01 01:40:10;;;;;;;11.50;7.30;;;16.90;99.90;;;;;;5042861;28;20435;-74
2022/07/01 01:42:37;;;;;;;12.20;8.03;;;16.90;99.90;;;;;;5054328;28;20503;-73
2022/07/01 01:45:04;;;;;;;13.20;7.90;;;17.00;99.90;;;;;;5051888;28;20509;-73
2022/07/01 01:47:31;;;;;;;10.80;8.27;;;17.10;99.90;;;;;;5054953;28;20438;-74
2022/07/01 01:49:58;;;;;;;10.43;6.73;;;17.20;99.90;;;;;;5052086;28;20470;-73
2022/07/01 01:52:25;;;;;;;12.20;7.23;;;17.20;99.90;;;;;;5054159;28;20475;-73
2022/07/01 01:54:52;;;;;;;13.23;8.17;;;17.20;99.90;;;;;;5050285;28;21763;-73
2022/07/01 01:57:20;;;;;;;12.53;7.03;;;17.10;99.90;;;;;;5053203;28;20434;-73
2022/07/01 01:59:47;;;;;;;15.67;8.20;;;16.80;99.90;;;;;;5052432;28;20443;-73
2022/07/01 02:02:13;;;;;;;15.00;9.17;;;16.90;99.90;;;;;;5054594;28;20451;-73
2022/07/01 02:04:40;;;;;;;14.77;7.67;;;16.90;99.90;;;;;;5087696;22;20509;-71
2022/07/01 02:07:07;;;;;;;14.97;8.30;;;16.90;99.90;;;;;;5054366;28;20454;-71
2022/07/01 02:09:34;;;;;;;13.97;7.03;;;16.90;99.90;;;;;;5057591;28;20858;-71
2022/07/01 02:12:01;;;;;;;11.00;6.47;;;16.80;99.90;;;;;;5054491;28;20549;-71
2022/07/01 02:14:29;;;;;;;14.10;9.40;;;16.80;99.90;;;;;;5058937;28;20485;-71
2022/07/01 02:16:56;;;;;;;13.10;8.90;;;16.80;99.90;;;;;;5049675;28;20430;-71
2022/07/01 02:19:23;;;;;;;11.97;7.00;;;16.90;99.90;;;;;;5063479;28;20459;-72
2022/07/01 02:21:52;;;;;;;12.70;7.63;;;16.80;99.90;;;;;;5049807;28;20462;-71
2022/07/01 02:24:19;;;;;;;16.23;7.50;;;16.80;99.90;;;;;;5056275;28;20482;-71
2022/07/01 02:26:46;;;;;;;9.80;5.70;;;16.80;99.90;;;;;;5058261;28;20480;-71
2022/07/01 02:29:13;;;;;;;10.23;6.97;;;16.70;99.90;;;;;;5058721;28;23371;-71
2022/07/01 02:31:41;;;;;;;6.93;5.07;;;16.70;99.90;;;;;;5055591;28;20924;-71
2022/07/01 02:34:08;;;;;;;10.43;6.73;;;16.70;99.90;;;;;;5060217;28;20506;-70
2022/07/01 02:36:35;;;;;;;8.27;5.17;;;16.70;99.90;;;;;;5058776;28;21022;-70
2022/07/01 02:39:02;;;;;;;8.00;5.57;;;16.70;99.90;;;;;;5058819;28;20505;-71
2022/07/01 02:41:29;;;;;;;10.60;6.20;;;16.70;99.90;;;;;;5054682;28;20459;-70
2022/07/01 02:43:56;;;;;;;6.23;4.50;;;16.50;99.90;;;;;;5058826;28;20823;-71
2022/07/01 02:46:24;;;;;;;8.60;4.93;;;16.50;99.90;;;;;;5051946;28;20456;-71
2022/07/01 02:48:52;;;;;;;8.27;4.90;;;16.40;99.90;;;;;;5060394;28;20425;-70
2022/07/01 02:51:19;;;;;;;7.97;5.90;;;16.40;99.90;;;;;;5056651;28;20560;-71
2022/07/01 02:53:46;;;;;;;7.03;4.40;;;16.30;99.90;;;;;;5050303;28;20454;-71
2022/07/01 02:56:13;;;;;;;3.50;2.30;;;16.40;99.90;;;;;;5047968;28;20557;-71
2022/07/01 02:58:39;;;;;;;5.23;4.20;;;16.40;99.90;;;;;;5052520;28;20786;-71
2022/07/01 03:01:07;;;;;;;3.43;2.80;;;16.20;99.90;;;;;;5040055;28;20469;-71
2022/07/01 03:03:34;;;;;;;6.83;4.60;;;16.20;99.90;;;;;;5061621;28;20458;-71
2022/07/01 03:06:02;;;;;;;8.80;4.00;;;16.40;99.90;;;;;;5049555;28;20839;-71
2022/07/01 03:08:28;;;;;;;7.17;4.20;;;16.20;99.90;;;;;;5061321;28;20810;-71
2022/07/01 03:10:55;;;;;;;6.93;3.83;;;16.20;99.90;;;;;;5058135;28;20469;-72
2022/07/01 03:13:22;;;;;;;3.90;3.30;;;16.40;99.90;;;;;;5052773;28;20458;-71
2022/07/01 03:15:49;;;;;;;17.30;5.23;;;16.50;99.90;;;;;;5047547;28;20475;-71
2022/07/01 03:18:16;;;;;;;7.77;4.50;;;16.60;99.90;;;;;;5038643;28;20451;-71
2022/07/01 03:20:43;;;;;;;6.80;3.87;;;16.70;99.90;;;;;;5052370;28;20487;-71
2022/07/01 03:23:11;;;;;;;5.13;4.03;;;16.80;99.90;;;;;;5058300;28;20451;-71
2022/07/01 03:25:38;;;;;;;8.20;5.13;;;16.70;99.90;;;;;;5056357;28;20609;-71
2022/07/01 03:28:05;;;;;;;9.07;4.80;;;16.70;99.90;;;;;;5048180;28;20464;-71
2022/07/01 03:30:33;;;;;;;8.83;5.57;;;16.80;99.90;;;;;;5051940;28;20434;-71
2022/07/01 03:32:59;;;;;;;10.70;5.80;;;16.80;99.90;;;;;;5054619;28;21151;-72
2022/07/01 03:38:14;;;;;;;11.10;6.00;;;16.60;99.90;;;;;;5052260;28;20982;-72
2022/07/01 03:40:41;;;;;;;7.93;5.57;;;16.40;99.90;;;;;;5045665;28;20473;-71
2022/07/01 03:43:07;;;;;;;7.63;5.33;;;16.40;99.90;;;;;;5055150;28;20451;-71
2022/07/01 03:45:34;;;;;;;9.43;5.67;;;16.30;99.90;;;;;;5055237;28;20504;-71
2022/07/01 03:48:02;;;;;;;12.27;5.23;;;16.20;99.90;;;;;;5057147;28;20894;-71
2022/07/01 03:50:29;;;;;;;10.50;6.47;;;16.10;99.90;;;;;;5054501;28;20458;-71
2022/07/01 03:55:41;;;;;;;7.07;5.40;;;16.10;99.90;;;;;;5054059;28;20843;-71
2022/07/01 03:58:08;;;;;;;8.47;6.03;;;16.10;99.90;;;;;;5054115;28;20462;-71
2022/07/01 04:00:37;;;;;;;8.60;5.33;;;16.20;99.90;;;;;;5054535;28;20545;-71
2022/07/01 04:03:04;;;;;;;11.63;6.30;;;16.20;99.90;;;;;;5053368;28;20430;-71
2022/07/01 04:05:33;;;;;;;12.77;5.50;;;16.30;99.90;;;;;;5049777;28;20476;-71
2022/07/01 04:08:00;;;;;;;10.70;6.40;;;16.20;99.90;;;;;;5051390;28;20466;-71
2022/07/01 04:10:27;;;;;;;10.33;5.93;;;16.20;99.90;;;;;;5055056;28;20490;-71
2022/07/01 04:12:56;;;;;;;8.67;5.77;;;16.20;99.90;;;;;;5045339;28;20450;-71
2022/07/01 04:15:23;;;;;;;11.77;7.00;;;16.20;99.90;;;;;;5051921;28;20979;-71
2022/07/01 04:17:50;;;;;;;8.80;6.70;;;16.30;99.90;;;;;;5056372;28;20541;-71
2022/07/01 04:20:17;;;;;;;12.03;6.60;;;16.40;99.90;;;;;;5055286;28;20445;-71
2022/07/01 04:22:43;;;;;;;9.13;5.57;;;16.50;99.90;;;;;;5054246;28;20454;-71
2022/07/01 04:25:10;;;;;;;15.50;6.00;;;16.50;99.90;;;;;;5056691;28;20487;-71
2022/07/01 04:27:37;;;;;;;8.93;5.53;;;16.40;99.90;;;;;;5058126;28;20212;-71
2022/07/01 04:30:06;;;;;;;8.90;5.70;;;16.40;99.90;;;;;;5057103;28;20438;-71
2022/07/01 04:32:33;;;;;;;8.90;5.23;;;16.30;99.90;;;;;;5051164;28;20911;-71
2022/07/01 04:35:00;;;;;;;6.03;4.50;;;16.30;99.90;;;;;;5039616;28;20500;-70
2022/07/01 04:37:26;;;;;;;12.00;5.93;;;16.20;99.90;;;;;;5045591;28;20459;-69
2022/07/01 04:39:53;;;;;;;9.47;6.30;;;16.40;99.90;;;;;;5059246;28;20798;-69
2022/07/01 04:42:20;;;;;;;11.30;5.30;;;16.40;99.90;;;;;;5063794;28;20420;-69
2022/07/01 04:44:47;;;;;;;7.47;6.17;;;16.40;99.90;;;;;;5067731;28;20434;-72
2022/07/01 04:47:15;;;;;;;16.53;6.70;;;16.30;99.90;;;;;;5069804;28;20508;-70
2022/07/01 04:49:42;;;;;;;9.50;5.80;;;16.40;99.90;;;;;;5065635;28;20438;-70
2022/07/01 04:52:09;;;;;;;11.20;6.33;;;16.30;99.90;;;;;;5069765;28;20458;-69
2022/07/01 04:54:36;;;;;;;5.57;5.07;;;16.30;99.90;;;;;;5075727;28;20513;-70
2022/07/01 04:57:03;;;;;;;9.53;6.57;;;16.40;99.90;;;;;;5063948;28;20904;-70
2022/07/01 04:59:30;;;;;;;10.00;7.20;;;16.30;99.90;;;;;;5064257;28;20409;-70
2022/07/01 05:01:58;;;;;;;12.13;4.87;;;16.30;99.90;;;;;;5059224;28;20950;-70
2022/07/01 05:04:28;;;;;;;8.93;6.40;;;16.30;99.90;;;;;;5060817;28;20485;-70
2022/07/01 05:06:54;;;;;;;9.77;5.90;;;16.40;99.90;;;;;;5063800;28;20502;-70
2022/07/01 05:09:21;;;;;;;8.83;5.93;;;16.40;99.90;;;;;;5064768;28;20915;-70
2022/07/01 05:11:48;;;;;;;10.40;5.97;;;16.50;99.90;;;;;;5063108;28;20463;-70
2022/07/01 05:14:15;;;;;;;7.43;5.47;;;16.60;99.90;;;;;;5060788;28;20985;-70
2022/07/01 05:16:42;;;;;;;9.10;6.10;;;16.50;99.90;;;;;;5063562;28;20426;-71
2022/07/01 05:21:58;;;;;;;6.63;5.00;;;16.40;99.90;;;;;;5062896;28;20420;-71
2022/07/01 05:24:28;;;;;;;11.13;5.73;;;16.50;99.90;;;;;;5056623;28;20466;-70
2022/07/01 05:26:55;;;;;;;22.50;6.60;;;16.60;99.90;;;;;;5058689;28;20946;-70
2022/07/01 05:29:22;;;;;;;8.60;6.00;;;16.80;99.90;;;;;;5060062;28;20432;-70
2022/07/01 05:31:49;;;;;;;13.20;5.77;;;16.80;99.90;;;;;;5059887;28;20512;-70
2022/07/01 05:34:16;;;;;;;9.67;3.77;;;16.90;99.90;;;;;;5062017;28;20494;-69
2022/07/01 05:36:43;;;;;;;10.13;5.87;;;17.00;99.90;;;;;;5064282;28;20670;-70
2022/07/01 05:39:11;;;;;;;11.60;6.27;;;16.80;99.90;;;;;;5061661;28;20443;-70
2022/07/01 05:41:38;;;;;;;11.60;5.20;;;16.80;99.90;;;;;;5060833;28;20433;-70
2022/07/01 05:44:05;;;;;;;10.17;5.60;;;16.90;99.90;;;;;;5045627;28;20827;-71
2022/07/01 05:46:32;;;;;;;8.80;6.20;;;16.80;99.90;;;;;;5057693;28;20851;-71
2022/07/01 05:48:59;;;;;;;8.23;5.63;;;16.80;99.90;;;;;;5063052;28;20443;-71
2022/07/01 05:51:26;;;;;;;8.40;5.10;;;17.00;99.90;;;;;;5057424;28;20559;-71
2022/07/01 05:53:53;;;;;;;7.13;5.27;;;17.00;99.90;;;;;;5057923;28;20523;-71
2022/07/01 05:56:21;;;;;;;7.47;5.13;;;17.00;99.90;;;;;;5058586;28;20433;-71
2022/07/01 05:58:48;;;;;;;8.67;5.60;;;17.10;99.90;;;;;;5058659;28;20430;-70
2022/07/01 06:01:15;;;;;;;10.33;5.60;;;17.20;99.90;;;;;;5062064;28;20814;-71
2022/07/01 06:03:42;;;;;;;15.60;6.87;;;17.10;99.90;;;;;;5060277;28;20862;-71
2022/07/01 06:06:09;;;;;;;10.83;4.90;;;17.30;99.90;;;;;;5058708;28;20925;-71
2022/07/01 06:08:36;;;;;;;19.50;7.90;;;17.40;99.90;;;;;;5062630;28;20477;-71
2022/07/01 06:11:03;;;;;;;10.13;7.70;;;17.40;99.90;;;;;;5058394;28;20550;-71
2022/07/01 06:13:32;;;;;;;14.13;4.90;;;17.20;99.90;;;;;;5051604;28;21134;-70
2022/07/01 06:15:59;;;;;;;7.87;5.20;;;17.30;99.90;;;;;;5053440;28;21176;-71
2022/07/01 06:18:26;;;;;;;8.20;5.27;;;17.30;99.90;;;;;;5056810;28;21129;-71
2022/07/01 06:20:53;;;;;;;14.20;6.10;;;17.30;99.90;;;;;;5057269;28;20483;-71
2022/07/01 06:23:20;;;;;;;9.30;5.77;;;17.30;99.90;;;;;;5059181;28;20497;-70
2022/07/01 06:25:47;;;;;;;7.67;5.40;;;17.10;99.90;;;;;;5057569;28;20883;-71
2022/07/01 06:28:14;;;;;;;8.20;4.70;;;17.10;99.90;;;;;;5057731;28;20451;-70
2022/07/01 06:30:43;;;;;;;8.20;4.97;;;17.10;99.90;;;;;;5054850;28;20812;-70
2022/07/01 06:33:12;;;;;;;6.60;5.17;;;17.10;99.90;;;;;;5059258;28;20426;-71
2022/07/01 06:35:39;;;;;;;12.13;4.00;;;17.20;99.90;;;;;;5065023;28;20442;-69
2022/07/01 06:38:06;;;;;;;7.70;6.33;;;17.20;99.90;;;;;;5056724;28;20437;-70
2022/07/01 06:40:33;;;;;;;6.77;4.83;;;17.30;99.90;;;;;;5060722;28;20487;-70
2022/07/01 06:43:00;;;;;;;5.67;5.13;;;17.30;99.90;;;;;;5058000;28;20505;-70
2022/07/01 06:45:27;;;;;;;7.67;5.13;;;17.10;99.90;;;;;;5053987;28;20493;-69
2022/07/01 06:47:55;;;;;;;5.80;4.63;;;17.20;99.90;;;;;;5059789;28;20467;-70
2022/07/01 06:50:22;;;;;;;12.60;4.70;;;17.20;99.90;;;;;;5057490;28;20466;-70
2022/07/01 06:52:49;;;;;;;5.07;4.40;;;17.40;99.90;;;;;;5058029;28;20671;-69
2022/07/01 06:55:16;;;;;;;6.23;5.47;;;17.40;99.90;;;;;;5063073;28;20566;-70
2022/07/01 06:57:43;;;;;;;5.40;4.30;;;17.50;99.90;;;;;;5062991;28;20515;-68
2022/07/01 07:00:11;;;;;;;5.27;4.77;;;17.60;99.90;;;;;;5056051;28;20741;-68
2022/07/01 07:02:39;;;;;;;7.40;4.90;;;17.80;99.90;;;;;;5063084;28;20502;-75
2022/07/01 07:05:08;;;;;;;6.67;3.93;;;18.10;99.90;;;;;;5059475;28;20558;-70
2022/07/01 07:07:35;;;;;;;6.10;4.77;;;18.40;99.90;;;;;;5062039;28;20443;-71
2022/07/01 07:10:02;;;;;;;6.87;5.50;;;18.40;99.90;;;;;;5068964;28;20853;-73
2022/07/01 07:12:29;;;;;;;5.53;4.60;;;18.30;99.90;;;;;;5060556;28;20483;-71
2022/07/01 07:14:56;;;;;;;5.73;4.27;;;18.60;99.90;;;;;;5066307;28;21006;-71
2022/07/01 07:17:23;;;;;;;5.00;4.50;;;18.70;99.90;;;;;;5063296;28;20449;-71
2022/07/01 07:19:50;;;;;;;3.47;3.17;;;19.10;99.90;;;;;;5061381;28;20467;-71
2022/07/01 07:22:18;;;;;;;6.43;3.90;;;19.60;99.90;;;;;;5059472;28;20444;-72
2022/07/01 07:24:45;;;;;;;4.37;3.93;;;19.70;99.90;;;;;;5064500;28;20454;-71
2022/07/01 07:27:12;;;;;;;5.97;4.47;;;19.80;99.90;;;;;;5067016;28;20538;-71
2022/07/01 07:29:39;;;;;;;5.43;4.83;;;19.80;99.90;;;;;;5060577;28;20446;-71
2022/07/01 07:32:06;;;;;;;5.83;4.63;;;19.60;99.90;;;;;;5064885;28;20538;-70
2022/07/01 07:34:34;;;;;;;6.33;4.07;;;19.60;99.90;;;;;;5062696;28;20510;-71
2022/07/01 07:37:01;;;;;;;7.63;4.20;;;19.60;99.90;;;;;;5060978;28;20491;-71
2022/07/01 07:39:29;;;;;;;5.93;4.63;;;19.30;99.90;;;;;;5058879;28;20968;-69
2022/07/01 07:41:56;;;;;;;7.53;4.40;;;19.30;99.90;;;;;;5061493;28;20465;-70
2022/07/01 07:44:23;;;;;;;7.80;6.30;;;19.40;99.90;;;;;;5063143;28;20842;-70
2022/07/01 07:46:50;;;;;;;6.73;3.90;;;19.50;99.90;;;;;;5062352;28;20836;-70
2022/07/01 07:49:17;;;;;;;6.03;5.43;;;19.40;99.90;;;;;;5064473;28;20543;-71
2022/07/01 07:51:44;;;;;;;6.00;3.70;;;19.00;99.90;;;;;;5058243;28;20581;-70
2022/07/01 07:54:11;;;;;;;6.73;4.37;;;19.30;99.90;;;;;;5061253;28;20480;-70
2022/07/01 07:56:39;;;;;;;5.10;4.60;;;19.50;99.90;;;;;;5060147;28;20479;-70
2022/07/01 07:59:06;;;;;;;4.63;4.03;;;19.70;99.90;;;;;;5063493;28;20443;-70
2022/07/01 08:01:32;;;;;;;7.10;4.00;;;19.90;99.90;;;;;;5060205;28;20477;-70
2022/07/01 08:03:59;;;;;;;7.27;5.30;;;20.20;99.90;;;;;;5061413;28;20852;-71
2022/07/01 08:06:28;;;;;;;5.53;4.70;;;20.00;99.90;;;;;;5062618;28;20451;-71
2022/07/01 08:08:56;;;;;;;4.80;4.40;;;20.10;99.90;;;;;;5062762;28;20979;-69
2022/07/01 08:11:22;;;;;;;6.17;4.93;;;20.00;99.90;;;;;;5060283;28;20458;-69
2022/07/01 08:13:51;;;;;;;6.77;4.97;;;20.00;99.90;;;;;;5066136;28;20493;-70
2022/07/01 08:16:17;;;;;;;6.23;5.20;;;19.70;99.90;;;;;;5060334;28;20440;-70
2022/07/01 08:18:44;;;;;;;6.20;4.23;;;19.50;99.90;;;;;;5067111;28;20450;-70
2022/07/01 08:21:11;;;;;;;8.90;5.70;;;19.60;99.90;;;;;;5057419;28;20737;-70
2022/07/01 08:23:38;;;;;;;6.03;5.43;;;20.10;99.90;;;;;;5060716;28;20539;-72
2022/07/01 08:26:05;;;;;;;6.20;4.73;;;20.50;99.90;;;;;;5062503;28;20887;-71
2022/07/01 08:28:31;;;;;;;6.10;4.87;;;21.00;99.90;;;;;;5059614;28;20533;-71
2022/07/01 08:31:00;;;;;;;5.13;4.50;;;21.10;99.90;;;;;;5061631;28;20994;-71
2022/07/01 08:33:27;;;;;;;3.43;3.13;;;20.80;99.90;;;;;;5062123;28;20444;-72
2022/07/01 08:35:54;;;;;;;8.30;4.60;;;20.20;99.90;;;;;;5063654;28;20497;-70
2022/07/01 08:38:21;;;;;;;9.70;5.57;;;19.80;99.90;;;;;;5062387;28;20448;-71
2022/07/01 08:40:48;;;;;;;5.10;4.33;;;19.70;99.90;;;;;;5060221;28;20902;-71
2022/07/01 08:43:15;;;;;;;4.90;4.40;;;19.60;99.90;;;;;;5062898;28;20546;-71
2022/07/01 08:45:42;;;;;;;7.33;4.57;;;19.70;99.90;;;;;;5063549;28;20525;-71
2022/07/01 08:48:11;;;;;;;6.00;4.43;;;19.50;99.90;;;;;;5062576;28;20526;-71
2022/07/01 08:50:39;;;;;;;6.03;4.80;;;19.60;99.90;;;;;;5062353;28;20442;-71
2022/07/01 08:53:08;;;;;;;6.20;3.57;;;19.60;99.90;;;;;;5063793;28;20473;-71
2022/07/01 08:56:40;;;;;;;7.10;5.60;;;19.70;99.90;;;;;;5055328;28;20577;-71
2022/07/01 08:58:23;;;;;;;6.07;4.60;;;19.30;99.90;;;;;;5064876;28;20439;-71
2022/07/01 09:00:50;;;;;;;5.00;3.90;;;19.30;99.90;;;;;;5058956;28;20872;-71
2022/07/01 09:03:22;;;;;;;6.83;4.20;;;19.10;99.90;;;;;;5065481;28;20521;-72
2022/07/01 09:05:52;;;;;;;5.83;5.00;;;19.00;99.90;;;;;;5062198;28;20545;-71
2022/07/01 09:08:20;;;;;;;4.67;3.97;;;19.30;99.90;;;;;;5060679;28;20454;-71
2022/07/01 09:10:47;;;;;;;8.80;4.47;;;19.60;99.90;;;;;;5064915;28;20513;-71
2022/07/01 09:13:15;;;;;;;7.37;4.50;;;19.80;99.90;;;;;;5064071;28;20518;-71
2022/07/01 09:15:42;;;;;;;4.27;3.97;;;20.30;99.90;;;;;;5062566;28;20495;-72
2022/07/01 09:18:12;;;;;;;3.07;2.77;;;21.50;99.90;;;;;;5063808;28;20458;-72
2022/07/01 09:20:41;;;;;;;4.20;3.80;;;21.90;99.90;;;;;;5055344;28;20455;-72
2022/07/01 09:23:11;;;;;;;4.03;3.73;;;22.00;99.90;;;;;;5062118;28;20441;-71
2022/07/01 09:25:43;;;;;;;3.60;3.30;;;21.90;99.90;;;;;;5061283;28;21024;-72
2022/07/01 09:28:13;;;;;;;3.67;3.37;;;21.90;99.90;;;;;;5060951;28;20451;-71
2022/07/01 09:30:41;;;;;;;7.40;4.10;;;22.20;99.90;;;;;;5052991;28;20479;-72
2022/07/01 09:33:10;;;;;;;6.50;3.20;;;21.70;99.90;;;;;;5059425;28;20447;-71
2022/07/01 09:35:38;;;;;;;9.27;3.57;;;21.70;99.90;;;;;;5057101;28;20545;-73
2022/07/01 09:38:07;;;;;;;3.63;3.30;;;21.70;99.90;;;;;;5059189;28;20447;-72
2022/07/01 09:40:54;;;;;;;8.30;3.77;;;21.30;99.90;;;;;;5057216;28;20448;-71
2022/07/01 09:43:23;;;;;;;3.67;3.03;;;21.10;99.90;;;;;;5063854;28;20443;-71
2022/07/01 09:45:56;;;;;;;2.90;2.60;;;21.10;99.90;;;;;;5064453;28;20474;-71
2022/07/01 09:48:24;;;;;;;5.43;3.20;;;21.00;99.90;;;;;;5058775;28;20483;-71
2022/07/01 09:50:52;;;;;;;3.10;2.80;;;20.90;99.90;;;;;;5061106;28;20929;-71
2022/07/01 09:53:21;;;;;;;4.43;3.50;;;21.10;99.90;;;;;;5062666;28;20444;-70
2022/07/01 09:55:48;;;;;;;4.67;3.40;;;21.30;99.90;;;;;;5060462;28;20956;-71
2022/07/01 09:58:15;;;;;;;4.20;3.80;;;21.20;99.90;;;;;;5063427;28;20459;-71
2022/07/01 10:00:43;;;;;;;3.73;3.43;;;21.10;99.90;;;;;;5059199;28;20463;-71
2022/07/01 10:03:10;;;;;;;6.10;3.10;;;20.90;99.90;;;;;;5060332;28;20455;-70
2022/07/01 10:05:42;;;;;;;6.57;4.00;;;21.00;99.90;;;;;;5063092;28;20507;-71
2022/07/01 10:08:35;;;;;;;3.80;3.10;;;21.00;99.90;;;;;;5062404;28;20530;-71
2022/07/01 10:11:34;;;;;;;8.90;4.30;;;20.90;99.90;;;;;;5058030;28;20466;-71
2022/07/01 10:14:04;;;;;;;7.67;4.60;;;21.10;99.90;;;;;;5062761;28;20486;-71
2022/07/01 10:16:32;;;;;;;8.23;4.70;;;21.70;99.90;;;;;;5060077;28;20486;-72
2022/07/01 10:18:59;;;;;;;4.20;3.70;;;22.50;99.90;;;;;;5064559;28;21162;-71
2022/07/01 10:21:28;;;;;;;3.97;3.40;;;23.30;99.90;;;;;;5060977;28;20439;-70
2022/07/01 10:24:12;;;;;;;4.10;3.70;;;23.10;99.90;;;;;;5066660;28;20459;-70
2022/07/01 10:26:41;;;;;;;2.50;2.30;;;23.00;99.90;;;;;;5066319;28;20442;-71
2022/07/01 10:29:30;;;;;;;3.10;2.70;;;22.30;99.90;;;;;;5065905;28;20455;-70
2022/07/01 10:32:08;;;;;;;4.43;2.40;;;21.90;99.90;;;;;;5066942;28;20450;-71
2022/07/01 10:34:36;;;;;;;3.07;2.50;;;21.90;99.90;;;;;;5065888;28;20551;-71
2022/07/01 10:37:06;;;;;;;6.20;1.90;;;21.60;99.90;;;;;;5067900;28;20439;-72
2022/07/01 10:39:57;;;;;;;2.47;2.00;;;21.60;99.90;;;;;;5058487;28;20458;-70
2022/07/01 10:42:31;;;;;;;2.30;2.10;;;21.70;99.90;;;;;;5068000;28;20989;-71
2022/07/01 10:45:03;;;;;;;4.60;2.23;;;22.70;99.90;;;;;;5064331;28;20544;-72
2022/07/01 10:47:30;;;;;;;2.70;1.90;;;23.20;99.90;;;;;;5062081;28;20505;-71
2022/07/01 10:49:59;;;;;;;5.80;2.77;;;24.20;99.90;;;;;;5065889;28;20457;-71
2022/07/01 10:52:26;;;;;;;2.70;1.80;;;24.50;99.90;;;;;;5065072;28;20511;-71
2022/07/01 10:54:55;;;;;;;4.53;2.50;;;25.10;99.90;;;;;;5067045;28;20479;-72
2022/07/01 10:57:44;;;;;;;3.63;2.67;;;25.50;99.90;;;;;;5064045;28;20491;-71
2022/07/01 11:00:32;;;;;;;2.37;2.17;;;25.00;99.90;;;;;;5063862;28;20990;-70
2022/07/01 11:03:10;;;;;;;3.20;2.10;;;24.60;99.90;;;;;;5065299;28;20948;-73
2022/07/01 11:05:38;;;;;;;4.27;2.07;;;24.00;99.90;;;;;;5062763;28;20491;-70
2022/07/01 11:08:07;;;;;;;2.83;1.53;;;22.90;99.90;;;;;;5066261;28;20454;-71
2022/07/01 11:10:34;;;;;;;3.27;2.30;;;23.00;99.90;;;;;;5066717;28;20443;-72
2022/07/01 11:13:03;;;;;;;4.60;2.37;;;22.70;99.90;;;;;;5066330;28;20439;-71
2022/07/01 11:15:31;;;;;;;2.83;2.40;;;22.80;99.90;;;;;;5065346;28;20483;-71
2022/07/01 11:17:59;;;;;;;2.17;1.97;;;23.00;99.90;;;;;;5068838;28;20458;-72
2022/07/01 11:20:28;;;;;;;1.97;1.57;;;22.50;99.90;;;;;;5071672;28;20477;-71
2022/07/01 11:22:55;;;;;;;1.70;1.50;;;22.30;99.90;;;;;;5076137;28;20497;-72
2022/07/01 11:25:22;;;;;;;3.27;1.50;;;23.00;99.90;;;;;;5075447;28;20484;-71
2022/07/01 11:27:50;;;;;;;2.80;1.70;;;24.60;99.90;;;;;;5075367;28;20476;-72
2022/07/01 11:30:21;;;;;;;2.03;1.70;;;25.20;99.90;;;;;;5067212;28;20882;-70
2022/07/01 11:32:49;;;;;;;2.20;1.33;;;25.80;99.90;;;;;;5065789;28;20490;-71
2022/07/01 11:40:59;;;;;;;2.10;1.77;;;26.60;98.00;;;;;;5062222;28;20791;-73
2022/07/01 11:43:29;;;;;;;1.50;1.33;;;27.00;97.40;;;;;;5063600;28;20689;-72
2022/07/01 11:46:01;;;;;;;1.37;1.23;;;26.60;97.20;;;;;;5066357;28;20463;-72
2022/07/01 11:48:37;;;;;;;1.97;1.10;;;26.50;97.30;;;;;;5065695;28;20827;-72
2022/07/01 11:51:12;;;;;;;5.70;1.23;;;27.10;95.00;;;;;;5060528;28;20459;-72
2022/07/01 11:53:41;;;;;;;1.10;1.00;;;26.40;94.50;;;;;;5061400;28;20455;-72
2022/07/01 11:56:09;;;;;;;1.70;1.27;;;26.60;93.50;;;;;;5060790;28;20519;-71
2022/07/01 11:58:47;;;;;;;4.27;1.83;;;27.20;92.80;;;;;;5065700;28;20436;-73
2022/07/01 12:01:24;;;;;;;3.10;1.33;;;27.30;90.80;;;;;;5062865;28;20463;-72
2022/07/01 12:03:51;;;;;;;5.20;2.00;;;27.30;92.10;;;;;;5063353;28;20493;-72
2022/07/01 12:06:19;;;;;;;5.10;1.63;;;27.80;91.40;;;;;;5062525;28;20795;-73
2022/07/01 12:08:47;;;;;;;2.33;1.67;;;27.60;92.30;;;;;;5066500;28;20455;-72
2022/07/01 12:11:16;;;;;;;4.73;1.50;;;27.90;88.50;;;;;;5063638;28;20822;-72
2022/07/01 12:13:45;;;;;;;4.07;1.80;;;27.00;88.10;;;;;;5059884;28;20457;-72
2022/07/01 12:16:13;;;;;;;4.63;1.60;;;25.40;91.20;;;;;;5063182;28;20485;-73
2022/07/01 12:18:51;;;;;;;1.87;1.40;;;25.20;91.90;;;;;;5066979;28;20451;-71
2022/07/01 12:21:18;;;;;;;3.97;1.70;;;25.30;92.50;;;;;;5065812;28;20440;-72
2022/07/01 12:24:07;;;;;;;2.70;1.40;;;25.60;91.30;;;;;;5062456;28;20505;-72
2022/07/01 12:26:34;;;;;;;1.40;1.20;;;26.10;92.00;;;;;;5057046;28;20455;-71
2022/07/01 12:29:01;;;;;;;2.13;1.40;;;26.20;91.40;;;;;;5060498;28;20485;-71
2022/07/01 12:31:28;;;;;;;2.80;1.30;;;26.80;90.20;;;;;;5059211;28;20463;-72
2022/07/01 12:33:57;;;;;;;1.70;1.60;;;26.60;90.00;;;;;;5062259;28;20531;-72
2022/07/01 12:36:23;;;;;;;1.43;1.27;;;27.10;89.60;;;;;;5064412;28;21233;-73
2022/07/01 12:39:03;;;;;;;3.40;1.53;;;28.10;87.80;;;;;;5056693;28;20447;-73
2022/07/01 12:41:33;;;;;;;1.80;1.47;;;29.10;84.40;;;;;;5057743;28;20831;-72
2022/07/01 12:44:00;;;;;;;3.43;1.20;;;29.00;79.50;;;;;;5063424;28;20467;-72
2022/07/01 12:46:31;;;;;;;2.63;1.77;;;29.60;80.30;;;;;;5062106;28;20443;-72
2022/07/01 12:49:00;;;;;;;2.43;1.40;;;28.90;80.10;;;;;;5060811;28;20489;-72
2022/07/01 12:51:31;;;;;;;1.90;1.40;;;28.50;83.60;;;;;;5060734;28;21030;-72
2022/07/01 12:53:58;;;;;;;2.00;1.30;;;29.40;81.50;;;;;;5066896;28;20467;-72
2022/07/01 12:56:27;;;;;;;2.80;1.10;;;30.00;75.50;;;;;;5058480;28;20571;-72
2022/07/01 12:58:54;;;;;;;2.47;1.67;;;29.80;72.40;;;;;;5058302;28;20457;-72
2022/07/01 13:01:21;;;;;;;1.57;1.40;;;27.70;78.70;;;;;;5060208;28;21186;-72
2022/07/01 13:03:49;;;;;;;4.27;1.83;;;26.40;83.10;;;;;;5056973;28;20751;-72